sensor_id;sensor_type;location;lat;lon;timestamp;P1;durP1;ratioP1;P2;durP2;ratioP2
52494;SDS011;38405;53.212;5.660;2023-07-22T00:00:47;1.92;;;1.25;;
52494;SDS011;38405;53.212;5.660;2023-07-22T00:03:13;3.50;;;1.30;;
52494;SDS011;38405;53.212;5.660;2023-07-22T00:05:41;2.03;;;1.30;;
52494;SDS011;38405;53.212;5.660;2023-07-22T00:08:07;4.63;;;1.33;;
52494;SDS011;38405;53.212;5.660;2023-07-22T00:10:33;2.88;;;1.58;;
52494;SDS011;38405;53.212;5.660;2023-07-22T00:12:58;2.03;;;1.27;;
52494;SDS011;38405;53.212;5.660;2023-07-22T00:15:24;3.35;;;1.60;;
52494;SDS011;38405;53.212;5.660;2023-07-22T00:17:50;3.05;;;1.42;;
52494;SDS011;38405;53.212;5.660;2023-07-22T00:20:16;4.40;;;1.33;;
52494;SDS011;38405;53.212;5.660;2023-07-22T00:22:42;3.38;;;1.40;;
52494;SDS011;38405;53.212;5.660;2023-07-22T00:25:11;5.72;;;1.40;;
52494;SDS011;38405;53.212;5.660;2023-07-22T00:27:38;2.47;;;1.40;;
52494;SDS011;38405;53.212;5.660;2023-07-22T00:30:08;2.53;;;1.35;;
52494;SDS011;38405;53.212;5.660;2023-07-22T00:32:34;4.57;;;1.58;;
52494;SDS011;38405;53.212;5.660;2023-07-22T00:35:04;5.75;;;1.23;;
52494;SDS011;38405;53.212;5.660;2023-07-22T00:37:31;4.82;;;1.45;;
52494;SDS011;38405;53.212;5.660;2023-07-22T00:39:57;1.38;;;1.02;;
52494;SDS011;38405;53.212;5.660;2023-07-22T00:42:23;2.83;;;1.35;;
52494;SDS011;38405;53.212;5.660;2023-07-22T00:44:49;3.47;;;1.35;;
52494;SDS011;38405;53.212;5.660;2023-07-22T00:47:15;4.00;;;1.20;;
52494;SDS011;38405;53.212;5.660;2023-07-22T00:49:42;3.58;;;1.30;;
52494;SDS011;38405;53.212;5.660;2023-07-22T00:52:08;5.70;;;1.63;;
52494;SDS011;38405;53.212;5.660;2023-07-22T00:54:34;4.05;;;1.40;;
52494;SDS011;38405;53.212;5.660;2023-07-22T00:57:00;2.90;;;1.60;;
52494;SDS011;38405;53.212;5.660;2023-07-22T00:59:25;6.47;;;1.80;;
52494;SDS011;38405;53.212;5.660;2023-07-22T01:01:52;3.38;;;1.63;;
52494;SDS011;38405;53.212;5.660;2023-07-22T01:04:19;1.95;;;1.50;;
52494;SDS011;38405;53.212;5.660;2023-07-22T01:06:45;2.38;;;1.45;;
52494;SDS011;38405;53.212;5.660;2023-07-22T01:09:11;3.17;;;1.63;;
52494;SDS011;38405;53.212;5.660;2023-07-22T01:11:38;6.20;;;1.83;;
52494;SDS011;38405;53.212;5.660;2023-07-22T01:14:04;2.67;;;1.67;;
52494;SDS011;38405;53.212;5.660;2023-07-22T01:16:29;5.65;;;1.73;;
52494;SDS011;38405;53.212;5.660;2023-07-22T01:18:56;5.75;;;1.67;;
52494;SDS011;38405;53.212;5.660;2023-07-22T01:21:22;3.58;;;1.30;;
52494;SDS011;38405;53.212;5.660;2023-07-22T01:23:49;1.35;;;1.25;;
52494;SDS011;38405;53.212;5.660;2023-07-22T01:26:15;2.75;;;1.40;;
52494;SDS011;38405;53.212;5.660;2023-07-22T01:28:41;5.28;;;1.30;;
52494;SDS011;38405;53.212;5.660;2023-07-22T01:31:08;1.95;;;1.30;;
52494;SDS011;38405;53.212;5.660;2023-07-22T01:33:33;3.78;;;1.73;;
52494;SDS011;38405;53.212;5.660;2023-07-22T01:35:59;1.63;;;1.40;;
52494;SDS011;38405;53.212;5.660;2023-07-22T01:38:25;2.38;;;1.45;;
52494;SDS011;38405;53.212;5.660;2023-07-22T01:40:51;2.08;;;1.50;;
52494;SDS011;38405;53.212;5.660;2023-07-22T01:43:17;3.90;;;1.80;;
52494;SDS011;38405;53.212;5.660;2023-07-22T01:45:43;2.60;;;1.45;;
52494;SDS011;38405;53.212;5.660;2023-07-22T01:48:08;6.07;;;1.50;;
52494;SDS011;38405;53.212;5.660;2023-07-22T01:50:34;1.80;;;1.58;;
52494;SDS011;38405;53.212;5.660;2023-07-22T01:53:00;3.38;;;1.63;;
52494;SDS011;38405;53.212;5.660;2023-07-22T01:55:26;1.60;;;1.50;;
52494;SDS011;38405;53.212;5.660;2023-07-22T01:57:51;2.97;;;1.85;;
52494;SDS011;38405;53.212;5.660;2023-07-22T02:00:17;3.15;;;1.60;;
52494;SDS011;38405;53.212;5.660;2023-07-22T02:02:42;2.15;;;1.40;;
52494;SDS011;38405;53.212;5.660;2023-07-22T02:05:08;2.80;;;1.50;;
52494;SDS011;38405;53.212;5.660;2023-07-22T02:07:35;4.53;;;1.50;;
52494;SDS011;38405;53.212;5.660;2023-07-22T02:10:01;2.25;;;1.20;;
52494;SDS011;38405;53.212;5.660;2023-07-22T02:12:26;2.10;;;1.60;;
52494;SDS011;38405;53.212;5.660;2023-07-22T02:14:52;1.70;;;1.60;;
52494;SDS011;38405;53.212;5.660;2023-07-22T02:17:18;5.28;;;2.13;;
52494;SDS011;38405;53.212;5.660;2023-07-22T02:19:45;4.22;;;2.15;;
52494;SDS011;38405;53.212;5.660;2023-07-22T02:22:11;3.38;;;1.88;;
52494;SDS011;38405;53.212;5.660;2023-07-22T02:24:37;4.57;;;2.10;;
52494;SDS011;38405;53.212;5.660;2023-07-22T02:27:03;2.80;;;2.25;;
52494;SDS011;38405;53.212;5.660;2023-07-22T02:29:29;4.05;;;2.10;;
52494;SDS011;38405;53.212;5.660;2023-07-22T02:31:56;3.30;;;1.77;;
52494;SDS011;38405;53.212;5.660;2023-07-22T02:34:22;4.40;;;2.20;;
52494;SDS011;38405;53.212;5.660;2023-07-22T02:36:48;3.03;;;2.42;;
52494;SDS011;38405;53.212;5.660;2023-07-22T02:39:14;4.68;;;2.13;;
52494;SDS011;38405;53.212;5.660;2023-07-22T02:41:40;3.78;;;2.30;;
52494;SDS011;38405;53.212;5.660;2023-07-22T02:44:06;2.78;;;2.15;;
52494;SDS011;38405;53.212;5.660;2023-07-22T02:46:32;5.75;;;2.53;;
52494;SDS011;38405;53.212;5.660;2023-07-22T02:48:58;4.63;;;2.25;;
52494;SDS011;38405;53.212;5.660;2023-07-22T02:51:24;5.30;;;2.35;;
52494;SDS011;38405;53.212;5.660;2023-07-22T02:53:49;6.63;;;2.67;;
52494;SDS011;38405;53.212;5.660;2023-07-22T02:56:15;4.78;;;2.40;;
52494;SDS011;38405;53.212;5.660;2023-07-22T02:58:41;3.85;;;2.42;;
52494;SDS011;38405;53.212;5.660;2023-07-22T03:01:07;3.28;;;2.35;;
52494;SDS011;38405;53.212;5.660;2023-07-22T03:03:34;5.78;;;2.90;;
52494;SDS011;38405;53.212;5.660;2023-07-22T03:06:00;3.33;;;2.40;;
52494;SDS011;38405;53.212;5.660;2023-07-22T03:08:27;8.05;;;2.60;;
52494;SDS011;38405;53.212;5.660;2023-07-22T03:10:52;6.97;;;2.80;;
52494;SDS011;38405;53.212;5.660;2023-07-22T03:13:18;5.35;;;2.78;;
52494;SDS011;38405;53.212;5.660;2023-07-22T03:15:44;9.02;;;3.10;;
52494;SDS011;38405;53.212;5.660;2023-07-22T03:18:10;4.93;;;3.00;;
52494;SDS011;38405;53.212;5.660;2023-07-22T03:20:36;5.28;;;2.95;;
52494;SDS011;38405;53.212;5.660;2023-07-22T03:23:03;4.20;;;3.00;;
52494;SDS011;38405;53.212;5.660;2023-07-22T03:25:29;4.70;;;3.00;;
52494;SDS011;38405;53.212;5.660;2023-07-22T03:27:55;3.58;;;2.92;;
52494;SDS011;38405;53.212;5.660;2023-07-22T03:30:21;6.30;;;3.35;;
52494;SDS011;38405;53.212;5.660;2023-07-22T03:32:48;4.75;;;3.22;;
52494;SDS011;38405;53.212;5.660;2023-07-22T03:35:15;4.55;;;2.92;;
52494;SDS011;38405;53.212;5.660;2023-07-22T03:37:42;5.22;;;3.17;;
52494;SDS011;38405;53.212;5.660;2023-07-22T03:40:08;6.38;;;3.30;;
52494;SDS011;38405;53.212;5.660;2023-07-22T03:45:18;4.85;;;3.20;;
52494;SDS011;38405;53.212;5.660;2023-07-22T03:47:46;6.15;;;3.50;;
52494;SDS011;38405;53.212;5.660;2023-07-22T03:50:14;5.68;;;3.40;;
52494;SDS011;38405;53.212;5.660;2023-07-22T03:52:40;5.90;;;3.60;;
52494;SDS011;38405;53.212;5.660;2023-07-22T03:55:06;7.50;;;3.85;;
52494;SDS011;38405;53.212;5.660;2023-07-22T03:57:32;8.32;;;4.47;;
52494;SDS011;38405;53.212;5.660;2023-07-22T03:59:57;6.22;;;4.55;;
52494;SDS011;38405;53.212;5.660;2023-07-22T04:02:23;12.35;;;4.78;;
52494;SDS011;38405;53.212;5.660;2023-07-22T04:04:50;9.35;;;4.88;;
52494;SDS011;38405;53.212;5.660;2023-07-22T04:07:17;8.75;;;4.50;;
52494;SDS011;38405;53.212;5.660;2023-07-22T04:09:43;9.15;;;5.10;;
52494;SDS011;38405;53.212;5.660;2023-07-22T04:12:10;8.05;;;4.55;;
52494;SDS011;38405;53.212;5.660;2023-07-22T04:14:35;7.57;;;5.10;;
52494;SDS011;38405;53.212;5.660;2023-07-22T04:17:01;7.28;;;4.75;;
52494;SDS011;38405;53.212;5.660;2023-07-22T04:19:29;7.03;;;4.80;;
52494;SDS011;38405;53.212;5.660;2023-07-22T04:21:55;9.32;;;5.60;;
52494;SDS011;38405;53.212;5.660;2023-07-22T04:24:20;9.70;;;6.32;;
52494;SDS011;38405;53.212;5.660;2023-07-22T04:26:46;12.43;;;6.03;;
52494;SDS011;38405;53.212;5.660;2023-07-22T04:29:12;14.63;;;5.90;;
52494;SDS011;38405;53.212;5.660;2023-07-22T04:31:38;10.95;;;6.60;;
52494;SDS011;38405;53.212;5.660;2023-07-22T04:34:04;13.27;;;6.45;;
52494;SDS011;38405;53.212;5.660;2023-07-22T04:36:30;9.02;;;5.90;;
52494;SDS011;38405;53.212;5.660;2023-07-22T04:38:56;11.55;;;6.38;;
52494;SDS011;38405;53.212;5.660;2023-07-22T04:41:22;12.48;;;6.47;;
52494;SDS011;38405;53.212;5.660;2023-07-22T04:43:48;10.65;;;6.30;;
52494;SDS011;38405;53.212;5.660;2023-07-22T04:46:15;10.98;;;6.72;;
52494;SDS011;38405;53.212;5.660;2023-07-22T04:48:41;11.90;;;6.85;;
52494;SDS011;38405;53.212;5.660;2023-07-22T04:51:07;16.33;;;6.93;;
52494;SDS011;38405;53.212;5.660;2023-07-22T04:53:32;12.13;;;6.57;;
52494;SDS011;38405;53.212;5.660;2023-07-22T04:55:58;12.45;;;6.85;;
52494;SDS011;38405;53.212;5.660;2023-07-22T04:58:24;11.02;;;6.82;;
52494;SDS011;38405;53.212;5.660;2023-07-22T05:00:50;13.45;;;7.07;;
52494;SDS011;38405;53.212;5.660;2023-07-22T05:03:16;9.55;;;6.22;;
52494;SDS011;38405;53.212;5.660;2023-07-22T05:05:43;10.07;;;6.18;;
52494;SDS011;38405;53.212;5.660;2023-07-22T05:08:08;8.85;;;6.60;;
52494;SDS011;38405;53.212;5.660;2023-07-22T05:10:34;9.85;;;6.47;;
52494;SDS011;38405;53.212;5.660;2023-07-22T05:13:00;12.13;;;7.13;;
52494;SDS011;38405;53.212;5.660;2023-07-22T05:15:25;10.02;;;6.65;;
52494;SDS011;38405;53.212;5.660;2023-07-22T05:17:51;9.30;;;6.45;;
52494;SDS011;38405;53.212;5.660;2023-07-22T05:20:17;14.75;;;6.45;;
52494;SDS011;38405;53.212;5.660;2023-07-22T05:22:42;13.32;;;6.82;;
52494;SDS011;38405;53.212;5.660;2023-07-22T05:25:08;10.57;;;6.38;;
52494;SDS011;38405;53.212;5.660;2023-07-22T05:27:37;10.98;;;6.80;;
52494;SDS011;38405;53.212;5.660;2023-07-22T05:30:04;8.88;;;6.40;;
52494;SDS011;38405;53.212;5.660;2023-07-22T05:32:30;10.07;;;6.22;;
52494;SDS011;38405;53.212;5.660;2023-07-22T05:34:56;10.13;;;6.20;;
52494;SDS011;38405;53.212;5.660;2023-07-22T05:37:23;8.60;;;6.25;;
52494;SDS011;38405;53.212;5.660;2023-07-22T05:39:49;9.50;;;6.05;;
52494;SDS011;38405;53.212;5.660;2023-07-22T05:42:15;10.50;;;6.55;;
52494;SDS011;38405;53.212;5.660;2023-07-22T05:44:41;9.25;;;6.40;;
52494;SDS011;38405;53.212;5.660;2023-07-22T05:47:07;11.55;;;6.15;;
52494;SDS011;38405;53.212;5.660;2023-07-22T05:49:32;9.63;;;6.47;;
52494;SDS011;38405;53.212;5.660;2023-07-22T05:51:58;9.52;;;6.50;;
52494;SDS011;38405;53.212;5.660;2023-07-22T05:54:24;8.13;;;5.90;;
52494;SDS011;38405;53.212;5.660;2023-07-22T05:56:49;8.48;;;6.03;;
52494;SDS011;38405;53.212;5.660;2023-07-22T05:59:15;7.75;;;5.93;;
52494;SDS011;38405;53.212;5.660;2023-07-22T06:01:40;10.88;;;5.90;;
52494;SDS011;38405;53.212;5.660;2023-07-22T06:04:06;10.00;;;6.30;;
52494;SDS011;38405;53.212;5.660;2023-07-22T06:06:32;9.57;;;5.95;;
52494;SDS011;38405;53.212;5.660;2023-07-22T06:08:58;10.70;;;5.75;;
52494;SDS011;38405;53.212;5.660;2023-07-22T06:11:23;10.60;;;6.47;;
52494;SDS011;38405;53.212;5.660;2023-07-22T06:13:49;8.30;;;6.38;;
52494;SDS011;38405;53.212;5.660;2023-07-22T06:16:15;11.60;;;7.22;;
52494;SDS011;38405;53.212;5.660;2023-07-22T06:18:40;9.07;;;6.63;;
52494;SDS011;38405;53.212;5.660;2023-07-22T06:21:06;13.43;;;7.63;;
52494;SDS011;38405;53.212;5.660;2023-07-22T06:23:32;11.13;;;7.43;;
52494;SDS011;38405;53.212;5.660;2023-07-22T06:25:57;11.35;;;7.20;;
52494;SDS011;38405;53.212;5.660;2023-07-22T06:28:23;14.45;;;7.78;;
52494;SDS011;38405;53.212;5.660;2023-07-22T06:30:49;11.45;;;7.25;;
52494;SDS011;38405;53.212;5.660;2023-07-22T06:33:14;11.68;;;7.70;;
52494;SDS011;38405;53.212;5.660;2023-07-22T06:35:41;12.00;;;7.97;;
52494;SDS011;38405;53.212;5.660;2023-07-22T06:38:07;11.80;;;8.52;;
52494;SDS011;38405;53.212;5.660;2023-07-22T06:40:33;12.43;;;7.97;;
52494;SDS011;38405;53.212;5.660;2023-07-22T06:42:58;14.60;;;7.45;;
52494;SDS011;38405;53.212;5.660;2023-07-22T06:45:24;11.32;;;7.38;;
52494;SDS011;38405;53.212;5.660;2023-07-22T06:47:50;12.25;;;8.02;;
52494;SDS011;38405;53.212;5.660;2023-07-22T06:50:15;12.45;;;7.72;;
52494;SDS011;38405;53.212;5.660;2023-07-22T06:52:41;16.75;;;7.38;;
52494;SDS011;38405;53.212;5.660;2023-07-22T06:55:07;11.55;;;7.55;;
52494;SDS011;38405;53.212;5.660;2023-07-22T06:57:32;12.80;;;7.60;;
52494;SDS011;38405;53.212;5.660;2023-07-22T06:59:58;11.70;;;6.80;;
52494;SDS011;38405;53.212;5.660;2023-07-22T07:02:24;11.05;;;7.18;;
52494;SDS011;38405;53.212;5.660;2023-07-22T07:04:50;9.70;;;6.82;;
52494;SDS011;38405;53.212;5.660;2023-07-22T07:07:16;9.60;;;7.20;;
52494;SDS011;38405;53.212;5.660;2023-07-22T07:09:42;10.68;;;6.93;;
52494;SDS011;38405;53.212;5.660;2023-07-22T07:12:08;10.50;;;7.18;;
52494;SDS011;38405;53.212;5.660;2023-07-22T07:14:34;9.07;;;6.90;;
52494;SDS011;38405;53.212;5.660;2023-07-22T07:17:00;10.90;;;6.05;;
52494;SDS011;38405;53.212;5.660;2023-07-22T07:19:26;12.98;;;6.72;;
52494;SDS011;38405;53.212;5.660;2023-07-22T07:21:53;13.00;;;6.63;;
52494;SDS011;38405;53.212;5.660;2023-07-22T07:24:18;10.25;;;6.57;;
52494;SDS011;38405;53.212;5.660;2023-07-22T07:26:44;9.07;;;6.43;;
52494;SDS011;38405;53.212;5.660;2023-07-22T07:29:10;9.50;;;6.55;;
52494;SDS011;38405;53.212;5.660;2023-07-22T07:31:37;11.93;;;6.95;;
52494;SDS011;38405;53.212;5.660;2023-07-22T07:34:03;10.25;;;6.60;;
52494;SDS011;38405;53.212;5.660;2023-07-22T07:36:28;11.20;;;6.82;;
52494;SDS011;38405;53.212;5.660;2023-07-22T07:38:54;10.63;;;6.93;;
52494;SDS011;38405;53.212;5.660;2023-07-22T07:41:22;12.02;;;7.22;;
52494;SDS011;38405;53.212;5.660;2023-07-22T07:43:48;11.50;;;7.05;;
52494;SDS011;38405;53.212;5.660;2023-07-22T07:46:27;10.07;;;6.03;;
52494;SDS011;38405;53.212;5.660;2023-07-22T07:51:20;7.57;;;6.22;;
52494;SDS011;38405;53.212;5.660;2023-07-22T07:53:47;7.60;;;6.28;;
52494;SDS011;38405;53.212;5.660;2023-07-22T07:56:14;8.80;;;5.38;;
52494;SDS011;38405;53.212;5.660;2023-07-22T07:58:40;9.85;;;5.65;;
52494;SDS011;38405;53.212;5.660;2023-07-22T08:01:06;10.02;;;5.57;;
52494;SDS011;38405;53.212;5.660;2023-07-22T08:03:33;6.28;;;4.50;;
52494;SDS011;38405;53.212;5.660;2023-07-22T08:06:00;8.68;;;3.65;;
52494;SDS011;38405;53.212;5.660;2023-07-22T08:08:26;7.05;;;3.67;;
52494;SDS011;38405;53.212;5.660;2023-07-22T08:11:01;4.13;;;3.70;;
52494;SDS011;38405;53.212;5.660;2023-07-22T08:13:35;4.60;;;4.13;;
52494;SDS011;38405;53.212;5.660;2023-07-22T08:16:02;5.38;;;4.00;;
52494;SDS011;38405;53.212;5.660;2023-07-22T08:18:38;6.55;;;4.57;;
52494;SDS011;38405;53.212;5.660;2023-07-22T08:21:04;8.38;;;4.40;;
52494;SDS011;38405;53.212;5.660;2023-07-22T08:23:32;6.50;;;4.25;;
52494;SDS011;38405;53.212;5.660;2023-07-22T08:25:58;5.38;;;4.47;;
52494;SDS011;38405;53.212;5.660;2023-07-22T08:28:23;5.28;;;3.80;;
52494;SDS011;38405;53.212;5.660;2023-07-22T08:30:49;6.55;;;3.97;;
52494;SDS011;38405;53.212;5.660;2023-07-22T08:33:18;4.80;;;3.50;;
52494;SDS011;38405;53.212;5.660;2023-07-22T08:35:44;3.65;;;2.78;;
52494;SDS011;38405;53.212;5.660;2023-07-22T08:38:12;5.10;;;2.97;;
52494;SDS011;38405;53.212;5.660;2023-07-22T08:40:39;5.22;;;3.08;;
52494;SDS011;38405;53.212;5.660;2023-07-22T08:43:09;8.80;;;2.80;;
52494;SDS011;38405;53.212;5.660;2023-07-22T08:45:36;3.35;;;2.90;;
52494;SDS011;38405;53.212;5.660;2023-07-22T08:48:03;12.10;;;3.05;;
52494;SDS011;38405;53.212;5.660;2023-07-22T08:50:57;5.80;;;3.30;;
52494;SDS011;38405;53.212;5.660;2023-07-22T08:53:23;4.32;;;2.92;;
52494;SDS011;38405;53.212;5.660;2023-07-22T08:55:50;4.97;;;3.03;;
52494;SDS011;38405;53.212;5.660;2023-07-22T08:58:16;3.72;;;3.00;;
52494;SDS011;38405;53.212;5.660;2023-07-22T09:00:42;4.05;;;3.20;;
52494;SDS011;38405;53.212;5.660;2023-07-22T09:03:08;6.10;;;3.38;;
52494;SDS011;38405;53.212;5.660;2023-07-22T09:05:35;4.82;;;3.22;;
52494;SDS011;38405;53.212;5.660;2023-07-22T09:08:02;3.97;;;2.92;;
52494;SDS011;38405;53.212;5.660;2023-07-22T09:10:29;4.68;;;2.85;;
52494;SDS011;38405;53.212;5.660;2023-07-22T09:12:55;4.55;;;3.38;;
52494;SDS011;38405;53.212;5.660;2023-07-22T09:15:21;3.95;;;3.45;;
52494;SDS011;38405;53.212;5.660;2023-07-22T09:17:48;5.53;;;3.30;;
52494;SDS011;38405;53.212;5.660;2023-07-22T09:20:15;4.35;;;3.40;;
52494;SDS011;38405;53.212;5.660;2023-07-22T09:22:44;5.10;;;3.65;;
52494;SDS011;38405;53.212;5.660;2023-07-22T09:25:12;4.03;;;3.22;;
52494;SDS011;38405;53.212;5.660;2023-07-22T09:27:46;3.80;;;3.08;;
52494;SDS011;38405;53.212;5.660;2023-07-22T09:30:45;4.25;;;3.20;;
52494;SDS011;38405;53.212;5.660;2023-07-22T09:33:05;5.30;;;3.05;;
52494;SDS011;38405;53.212;5.660;2023-07-22T09:35:45;8.25;;;2.97;;
52494;SDS011;38405;53.212;5.660;2023-07-22T09:38:12;6.13;;;3.25;;
52494;SDS011;38405;53.212;5.660;2023-07-22T09:40:41;5.47;;;3.25;;
52494;SDS011;38405;53.212;5.660;2023-07-22T09:43:09;3.35;;;3.03;;
52494;SDS011;38405;53.212;5.660;2023-07-22T09:45:36;5.18;;;3.35;;
52494;SDS011;38405;53.212;5.660;2023-07-22T09:48:03;5.22;;;3.20;;
52494;SDS011;38405;53.212;5.660;2023-07-22T09:50:29;5.07;;;3.80;;
52494;SDS011;38405;53.212;5.660;2023-07-22T09:52:55;7.50;;;3.15;;
52494;SDS011;38405;53.212;5.660;2023-07-22T09:55:24;4.50;;;3.65;;
52494;SDS011;38405;53.212;5.660;2023-07-22T09:57:53;4.35;;;3.20;;
52494;SDS011;38405;53.212;5.660;2023-07-22T10:00:29;4.60;;;3.60;;
52494;SDS011;38405;53.212;5.660;2023-07-22T10:02:57;4.25;;;3.70;;
52494;SDS011;38405;53.212;5.660;2023-07-22T10:05:24;7.53;;;3.65;;
52494;SDS011;38405;53.212;5.660;2023-07-22T10:07:51;5.50;;;3.58;;
52494;SDS011;38405;53.212;5.660;2023-07-22T10:10:20;5.03;;;3.70;;
52494;SDS011;38405;53.212;5.660;2023-07-22T10:12:48;7.32;;;4.03;;
52494;SDS011;38405;53.212;5.660;2023-07-22T10:15:14;3.90;;;3.50;;
52494;SDS011;38405;53.212;5.660;2023-07-22T10:17:43;6.70;;;3.90;;
52494;SDS011;38405;53.212;5.660;2023-07-22T10:20:10;4.65;;;3.78;;
52494;SDS011;38405;53.212;5.660;2023-07-22T10:22:43;5.22;;;3.85;;
52494;SDS011;38405;53.212;5.660;2023-07-22T10:25:15;7.18;;;4.22;;
52494;SDS011;38405;53.212;5.660;2023-07-22T10:27:41;6.68;;;3.58;;
52494;SDS011;38405;53.212;5.660;2023-07-22T10:30:08;8.73;;;3.58;;
52494;SDS011;38405;53.212;5.660;2023-07-22T10:32:45;4.93;;;3.63;;
52494;SDS011;38405;53.212;5.660;2023-07-22T10:37:55;5.47;;;3.28;;
52494;SDS011;38405;53.212;5.660;2023-07-22T10:40:31;4.13;;;3.30;;
52494;SDS011;38405;53.212;5.660;2023-07-22T10:42:59;4.43;;;3.08;;
52494;SDS011;38405;53.212;5.660;2023-07-22T10:45:32;4.18;;;3.13;;
52494;SDS011;38405;53.212;5.660;2023-07-22T10:56:04;4.85;;;4.25;;
52494;SDS011;38405;53.212;5.660;2023-07-22T11:01:31;5.25;;;4.35;;
52494;SDS011;38405;53.212;5.660;2023-07-22T11:14:34;6.13;;;4.63;;
52494;SDS011;38405;53.212;5.660;2023-07-22T11:17:27;6.40;;;4.90;;
52494;SDS011;38405;53.212;5.660;2023-07-22T11:19:55;6.22;;;5.10;;
52494;SDS011;38405;53.212;5.660;2023-07-22T11:22:21;7.55;;;4.85;;
52494;SDS011;38405;53.212;5.660;2023-07-22T11:24:48;6.75;;;5.55;;
52494;SDS011;38405;53.212;5.660;2023-07-22T11:27:14;6.38;;;5.35;;
52494;SDS011;38405;53.212;5.660;2023-07-22T11:29:50;7.60;;;5.25;;
52494;SDS011;38405;53.212;5.660;2023-07-22T11:32:20;5.25;;;4.75;;
52494;SDS011;38405;53.212;5.660;2023-07-22T11:34:50;8.32;;;5.38;;
52494;SDS011;38405;53.212;5.660;2023-07-22T11:37:19;6.90;;;5.63;;
52494;SDS011;38405;53.212;5.660;2023-07-22T11:39:45;5.20;;;4.68;;
52494;SDS011;38405;53.212;5.660;2023-07-22T11:42:11;7.50;;;5.30;;
52494;SDS011;38405;53.212;5.660;2023-07-22T11:44:37;10.23;;;5.47;;
52494;SDS011;38405;53.212;5.660;2023-07-22T11:47:07;6.32;;;5.45;;
52494;SDS011;38405;53.212;5.660;2023-07-22T11:49:39;5.72;;;5.15;;
52494;SDS011;38405;53.212;5.660;2023-07-22T11:52:10;5.63;;;5.03;;
52494;SDS011;38405;53.212;5.660;2023-07-22T11:54:40;8.32;;;5.45;;
52494;SDS011;38405;53.212;5.660;2023-07-22T11:57:23;8.80;;;5.55;;
52494;SDS011;38405;53.212;5.660;2023-07-22T11:59:49;8.00;;;5.15;;
52494;SDS011;38405;53.212;5.660;2023-07-22T12:02:20;5.68;;;4.90;;
52494;SDS011;38405;53.212;5.660;2023-07-22T12:09:56;6.00;;;3.80;;
52494;SDS011;38405;53.212;5.660;2023-07-22T12:12:33;6.60;;;3.40;;
52494;SDS011;38405;53.212;5.660;2023-07-22T12:15:11;7.03;;;3.67;;
52494;SDS011;38405;53.212;5.660;2023-07-22T12:20:28;4.28;;;3.22;;
52494;SDS011;38405;53.212;5.660;2023-07-22T12:22:55;6.88;;;3.08;;
52494;SDS011;38405;53.212;5.660;2023-07-22T12:25:22;4.38;;;2.72;;
52494;SDS011;38405;53.212;5.660;2023-07-22T12:27:48;4.88;;;2.33;;
52494;SDS011;38405;53.212;5.660;2023-07-22T12:30:15;4.38;;;2.53;;
52494;SDS011;38405;53.212;5.660;2023-07-22T12:32:41;5.38;;;2.10;;
52494;SDS011;38405;53.212;5.660;2023-07-22T12:35:07;7.28;;;2.25;;
52494;SDS011;38405;53.212;5.660;2023-07-22T12:37:34;4.10;;;2.13;;
52494;SDS011;38405;53.212;5.660;2023-07-22T12:40:00;5.43;;;2.35;;
52494;SDS011;38405;53.212;5.660;2023-07-22T12:42:26;6.72;;;2.97;;
52494;SDS011;38405;53.212;5.660;2023-07-22T12:44:52;3.83;;;2.33;;
52494;SDS011;38405;53.212;5.660;2023-07-22T12:47:17;5.05;;;1.98;;
52494;SDS011;38405;53.212;5.660;2023-07-22T12:49:43;2.47;;;1.90;;
52494;SDS011;38405;53.212;5.660;2023-07-22T12:52:09;4.13;;;2.25;;
52494;SDS011;38405;53.212;5.660;2023-07-22T12:54:36;5.20;;;2.38;;
52494;SDS011;38405;53.212;5.660;2023-07-22T12:57:01;6.35;;;2.00;;
52494;SDS011;38405;53.212;5.660;2023-07-22T12:59:28;4.53;;;2.53;;
52494;SDS011;38405;53.212;5.660;2023-07-22T13:01:53;7.72;;;2.33;;
52494;SDS011;38405;53.212;5.660;2023-07-22T13:04:19;4.32;;;2.33;;
52494;SDS011;38405;53.212;5.660;2023-07-22T13:06:45;5.78;;;2.30;;
52494;SDS011;38405;53.212;5.660;2023-07-22T13:09:11;2.67;;;2.03;;
52494;SDS011;38405;53.212;5.660;2023-07-22T13:11:36;5.85;;;2.17;;
52494;SDS011;38405;53.212;5.660;2023-07-22T13:14:02;3.03;;;2.35;;
52494;SDS011;38405;53.212;5.660;2023-07-22T13:16:28;4.45;;;2.10;;
52494;SDS011;38405;53.212;5.660;2023-07-22T13:18:54;4.13;;;2.30;;
52494;SDS011;38405;53.212;5.660;2023-07-22T13:21:20;5.90;;;2.65;;
52494;SDS011;38405;53.212;5.660;2023-07-22T13:23:46;3.95;;;2.50;;
52494;SDS011;38405;53.212;5.660;2023-07-22T13:26:11;3.72;;;2.67;;
52494;SDS011;38405;53.212;5.660;2023-07-22T13:28:37;10.23;;;2.78;;
52494;SDS011;38405;53.212;5.660;2023-07-22T13:31:02;4.88;;;2.75;;
52494;SDS011;38405;53.212;5.660;2023-07-22T13:33:28;6.45;;;2.95;;
52494;SDS011;38405;53.212;5.660;2023-07-22T13:35:54;5.65;;;3.13;;
52494;SDS011;38405;53.212;5.660;2023-07-22T13:38:19;6.55;;;3.35;;
52494;SDS011;38405;53.212;5.660;2023-07-22T13:40:46;8.80;;;3.92;;
52494;SDS011;38405;53.212;5.660;2023-07-22T13:43:11;9.60;;;4.15;;
52494;SDS011;38405;53.212;5.660;2023-07-22T13:45:37;8.32;;;4.07;;
52494;SDS011;38405;53.212;5.660;2023-07-22T13:48:03;9.18;;;4.22;;
52494;SDS011;38405;53.212;5.660;2023-07-22T13:50:29;11.30;;;4.22;;
52494;SDS011;38405;53.212;5.660;2023-07-22T13:52:55;7.80;;;4.40;;
52494;SDS011;38405;53.212;5.660;2023-07-22T13:55:21;8.95;;;3.70;;
52494;SDS011;38405;53.212;5.660;2023-07-22T13:57:47;7.93;;;4.13;;
52494;SDS011;38405;53.212;5.660;2023-07-22T14:00:12;6.57;;;4.10;;
52494;SDS011;38405;53.212;5.660;2023-07-22T14:02:39;7.55;;;4.28;;
52494;SDS011;38405;53.212;5.660;2023-07-22T14:05:06;5.90;;;3.80;;
52494;SDS011;38405;53.212;5.660;2023-07-22T14:07:32;11.48;;;3.38;;
52494;SDS011;38405;53.212;5.660;2023-07-22T14:09:58;8.07;;;3.85;;
52494;SDS011;38405;53.212;5.660;2023-07-22T14:12:23;7.68;;;3.83;;
52494;SDS011;38405;53.212;5.660;2023-07-22T14:14:49;6.15;;;4.10;;
52494;SDS011;38405;53.212;5.660;2023-07-22T14:17:15;6.90;;;4.38;;
52494;SDS011;38405;53.212;5.660;2023-07-22T14:19:40;6.95;;;4.28;;
52494;SDS011;38405;53.212;5.660;2023-07-22T14:22:06;10.23;;;3.97;;
52494;SDS011;38405;53.212;5.660;2023-07-22T14:24:33;9.77;;;4.00;;
52494;SDS011;38405;53.212;5.660;2023-07-22T14:26:59;4.80;;;3.20;;
52494;SDS011;38405;53.212;5.660;2023-07-22T14:29:25;13.07;;;3.60;;
52494;SDS011;38405;53.212;5.660;2023-07-22T14:31:50;14.52;;;3.40;;
52494;SDS011;38405;53.212;5.660;2023-07-22T14:34:16;7.03;;;3.28;;
52494;SDS011;38405;53.212;5.660;2023-07-22T14:36:42;8.63;;;3.45;;
52494;SDS011;38405;53.212;5.660;2023-07-22T14:39:08;7.60;;;3.00;;
52494;SDS011;38405;53.212;5.660;2023-07-22T14:41:34;5.00;;;2.45;;
52494;SDS011;38405;53.212;5.660;2023-07-22T14:44:00;10.30;;;3.35;;
52494;SDS011;38405;53.212;5.660;2023-07-22T14:46:26;9.50;;;2.90;;
52494;SDS011;38405;53.212;5.660;2023-07-22T14:48:51;12.55;;;3.00;;
52494;SDS011;38405;53.212;5.660;2023-07-22T14:51:17;10.23;;;2.65;;
52494;SDS011;38405;53.212;5.660;2023-07-22T14:53:43;5.28;;;2.97;;
52494;SDS011;38405;53.212;5.660;2023-07-22T14:56:08;6.18;;;3.05;;
52494;SDS011;38405;53.212;5.660;2023-07-22T14:58:34;4.45;;;2.53;;
52494;SDS011;38405;53.212;5.660;2023-07-22T15:01:00;9.55;;;3.30;;
52494;SDS011;38405;53.212;5.660;2023-07-22T15:03:26;6.80;;;3.00;;
52494;SDS011;38405;53.212;5.660;2023-07-22T15:05:51;7.50;;;3.03;;
52494;SDS011;38405;53.212;5.660;2023-07-22T15:08:17;5.30;;;3.05;;
52494;SDS011;38405;53.212;5.660;2023-07-22T15:10:43;8.57;;;3.10;;
52494;SDS011;38405;53.212;5.660;2023-07-22T15:13:08;7.15;;;3.20;;
52494;SDS011;38405;53.212;5.660;2023-07-22T15:15:34;8.15;;;3.10;;
52494;SDS011;38405;53.212;5.660;2023-07-22T15:18:00;5.90;;;3.22;;
52494;SDS011;38405;53.212;5.660;2023-07-22T15:20:25;5.15;;;2.95;;